sensor_id;sensor_type;location;lat;lon;timestamp;P1;durP1;ratioP1;P2;durP2;ratioP2
43325;SDS011;28920;59.862;30.636;2024-02-26T00:01:31;14.85;;;8.30;;
43325;SDS011;28920;59.862;30.636;2024-02-26T00:03:59;10.75;;;7.10;;
43325;SDS011;28920;59.862;30.636;2024-02-26T00:06:29;9.90;;;5.97;;
43325;SDS011;28920;59.862;30.636;2024-02-26T00:08:56;9.65;;;5.75;;
43325;SDS011;28920;59.862;30.636;2024-02-26T00:11:24;9.98;;;7.80;;
43325;SDS011;28920;59.862;30.636;2024-02-26T00:13:51;10.55;;;6.65;;
43325;SDS011;28920;59.862;30.636;2024-02-26T00:16:18;11.73;;;7.05;;
43325;SDS011;28920;59.862;30.636;2024-02-26T00:18:45;12.32;;;6.28;;
43325;SDS011;28920;59.862;30.636;2024-02-26T00:21:12;11.32;;;7.25;;
43325;SDS011;28920;59.862;30.636;2024-02-26T00:23:40;10.38;;;6.35;;
43325;SDS011;28920;59.862;30.636;2024-02-26T00:26:08;10.88;;;6.75;;
43325;SDS011;28920;59.862;30.636;2024-02-26T00:28:36;11.93;;;6.95;;
43325;SDS011;28920;59.862;30.636;2024-02-26T00:31:04;11.45;;;7.07;;
43325;SDS011;28920;59.862;30.636;2024-02-26T00:33:31;11.32;;;5.85;;
43325;SDS011;28920;59.862;30.636;2024-02-26T00:35:58;11.63;;;6.00;;
43325;SDS011;28920;59.862;30.636;2024-02-26T00:38:25;7.40;;;4.68;;
43325;SDS011;28920;59.862;30.636;2024-02-26T00:40:54;9.32;;;5.62;;
43325;SDS011;28920;59.862;30.636;2024-02-26T00:43:21;8.32;;;4.55;;
43325;SDS011;28920;59.862;30.636;2024-02-26T00:45:48;9.02;;;5.20;;
43325;SDS011;28920;59.862;30.636;2024-02-26T00:48:15;9.40;;;5.35;;
43325;SDS011;28920;59.862;30.636;2024-02-26T00:50:42;8.65;;;4.43;;
43325;SDS011;28920;59.862;30.636;2024-02-26T00:53:09;8.43;;;5.50;;
43325;SDS011;28920;59.862;30.636;2024-02-26T00:55:37;9.85;;;5.37;;
43325;SDS011;28920;59.862;30.636;2024-02-26T00:58:05;8.38;;;5.45;;
43325;SDS011;28920;59.862;30.636;2024-02-26T01:00:32;8.38;;;4.90;;
43325;SDS011;28920;59.862;30.636;2024-02-26T01:02:59;8.50;;;4.50;;
43325;SDS011;28920;59.862;30.636;2024-02-26T01:05:26;10.07;;;5.60;;
43325;SDS011;28920;59.862;30.636;2024-02-26T01:07:54;8.50;;;5.55;;
43325;SDS011;28920;59.862;30.636;2024-02-26T01:10:21;10.05;;;6.30;;
43325;SDS011;28920;59.862;30.636;2024-02-26T01:12:48;12.85;;;7.10;;
43325;SDS011;28920;59.862;30.636;2024-02-26T01:15:16;12.07;;;6.68;;
43325;SDS011;28920;59.862;30.636;2024-02-26T01:17:45;14.60;;;8.07;;
43325;SDS011;28920;59.862;30.636;2024-02-26T01:20:12;14.98;;;8.48;;
43325;SDS011;28920;59.862;30.636;2024-02-26T01:22:39;14.82;;;8.52;;
43325;SDS011;28920;59.862;30.636;2024-02-26T01:25:07;16.23;;;9.40;;
43325;SDS011;28920;59.862;30.636;2024-02-26T01:27:35;22.60;;;9.85;;
43325;SDS011;28920;59.862;30.636;2024-02-26T01:30:03;20.73;;;10.73;;
43325;SDS011;28920;59.862;30.636;2024-02-26T01:32:31;19.92;;;10.57;;
43325;SDS011;28920;59.862;30.636;2024-02-26T01:34:59;21.20;;;10.02;;
43325;SDS011;28920;59.862;30.636;2024-02-26T01:37:26;23.15;;;11.68;;
43325;SDS011;28920;59.862;30.636;2024-02-26T01:39:53;23.27;;;11.93;;
43325;SDS011;28920;59.862;30.636;2024-02-26T01:42:20;21.35;;;9.98;;
43325;SDS011;28920;59.862;30.636;2024-02-26T01:44:47;25.80;;;11.95;;
43325;SDS011;28920;59.862;30.636;2024-02-26T01:47:15;27.10;;;13.13;;
43325;SDS011;28920;59.862;30.636;2024-02-26T01:49:43;24.00;;;11.63;;
43325;SDS011;28920;59.862;30.636;2024-02-26T01:52:10;22.70;;;11.30;;
43325;SDS011;28920;59.862;30.636;2024-02-26T01:54:38;26.02;;;12.95;;
43325;SDS011;28920;59.862;30.636;2024-02-26T01:57:07;20.60;;;10.13;;
43325;SDS011;28920;59.862;30.636;2024-02-26T01:59:35;20.55;;;10.90;;
43325;SDS011;28920;59.862;30.636;2024-02-26T02:02:03;20.70;;;11.35;;
43325;SDS011;28920;59.862;30.636;2024-02-26T02:04:35;24.63;;;11.43;;
43325;SDS011;28920;59.862;30.636;2024-02-26T02:07:04;21.48;;;10.75;;
43325;SDS011;28920;59.862;30.636;2024-02-26T02:09:32;22.55;;;11.40;;
43325;SDS011;28920;59.862;30.636;2024-02-26T02:11:59;20.37;;;9.68;;
43325;SDS011;28920;59.862;30.636;2024-02-26T02:14:27;24.85;;;11.90;;
43325;SDS011;28920;59.862;30.636;2024-02-26T02:16:55;21.42;;;11.38;;
43325;SDS011;28920;59.862;30.636;2024-02-26T02:19:23;21.52;;;9.55;;
43325;SDS011;28920;59.862;30.636;2024-02-26T02:21:50;18.67;;;10.45;;
43325;SDS011;28920;59.862;30.636;2024-02-26T02:24:18;21.25;;;10.10;;
43325;SDS011;28920;59.862;30.636;2024-02-26T02:26:45;17.27;;;10.10;;
43325;SDS011;28920;59.862;30.636;2024-02-26T02:29:12;15.65;;;9.00;;
43325;SDS011;28920;59.862;30.636;2024-02-26T02:31:40;22.25;;;10.50;;
43325;SDS011;28920;59.862;30.636;2024-02-26T02:34:09;17.95;;;10.63;;
43325;SDS011;28920;59.862;30.636;2024-02-26T02:36:47;19.08;;;9.75;;
43325;SDS011;28920;59.862;30.636;2024-02-26T02:39:16;20.50;;;9.70;;
43325;SDS011;28920;59.862;30.636;2024-02-26T02:41:43;26.65;;;11.07;;
43325;SDS011;28920;59.862;30.636;2024-02-26T02:44:10;25.75;;;12.20;;
43325;SDS011;28920;59.862;30.636;2024-02-26T02:46:38;30.88;;;14.07;;
43325;SDS011;28920;59.862;30.636;2024-02-26T02:49:07;29.40;;;12.27;;
43325;SDS011;28920;59.862;30.636;2024-02-26T02:51:36;20.58;;;10.85;;
43325;SDS011;28920;59.862;30.636;2024-02-26T02:54:03;21.10;;;10.60;;
43325;SDS011;28920;59.862;30.636;2024-02-26T02:56:31;31.85;;;12.43;;
43325;SDS011;28920;59.862;30.636;2024-02-26T02:58:59;33.85;;;13.10;;
43325;SDS011;28920;59.862;30.636;2024-02-26T03:01:26;34.42;;;13.18;;
43325;SDS011;28920;59.862;30.636;2024-02-26T03:03:53;32.83;;;12.82;;
43325;SDS011;28920;59.862;30.636;2024-02-26T03:06:20;35.22;;;14.23;;
43325;SDS011;28920;59.862;30.636;2024-02-26T03:08:48;27.30;;;13.98;;
43325;SDS011;28920;59.862;30.636;2024-02-26T03:11:15;32.28;;;13.18;;
43325;SDS011;28920;59.862;30.636;2024-02-26T03:13:43;35.72;;;15.75;;
43325;SDS011;28920;59.862;30.636;2024-02-26T03:16:10;36.47;;;16.02;;
43325;SDS011;28920;59.862;30.636;2024-02-26T03:18:38;39.40;;;16.30;;
43325;SDS011;28920;59.862;30.636;2024-02-26T03:21:05;43.87;;;15.80;;
43325;SDS011;28920;59.862;30.636;2024-02-26T03:23:33;35.42;;;14.68;;
43325;SDS011;28920;59.862;30.636;2024-02-26T03:26:03;32.35;;;13.98;;
43325;SDS011;28920;59.862;30.636;2024-02-26T03:28:30;29.35;;;13.75;;
43325;SDS011;28920;59.862;30.636;2024-02-26T03:31:00;36.58;;;14.43;;
43325;SDS011;28920;59.862;30.636;2024-02-26T03:33:28;38.63;;;15.70;;
43325;SDS011;28920;59.862;30.636;2024-02-26T03:35:55;30.27;;;14.10;;
43325;SDS011;28920;59.862;30.636;2024-02-26T03:38:22;33.47;;;14.35;;
43325;SDS011;28920;59.862;30.636;2024-02-26T03:40:50;27.95;;;13.40;;
43325;SDS011;28920;59.862;30.636;2024-02-26T03:43:17;33.58;;;15.57;;
43325;SDS011;28920;59.862;30.636;2024-02-26T03:45:44;34.50;;;14.95;;
43325;SDS011;28920;59.862;30.636;2024-02-26T03:48:12;34.65;;;16.23;;
43325;SDS011;28920;59.862;30.636;2024-02-26T03:50:39;33.90;;;13.73;;
43325;SDS011;28920;59.862;30.636;2024-02-26T03:53:06;31.92;;;14.70;;
43325;SDS011;28920;59.862;30.636;2024-02-26T03:55:35;29.10;;;13.82;;
43325;SDS011;28920;59.862;30.636;2024-02-26T03:58:02;40.83;;;16.55;;
43325;SDS011;28920;59.862;30.636;2024-02-26T04:00:29;34.58;;;15.85;;
43325;SDS011;28920;59.862;30.636;2024-02-26T04:02:57;30.70;;;14.32;;
43325;SDS011;28920;59.862;30.636;2024-02-26T04:05:25;35.53;;;15.13;;
43325;SDS011;28920;59.862;30.636;2024-02-26T04:07:52;33.78;;;14.05;;
43325;SDS011;28920;59.862;30.636;2024-02-26T04:10:19;34.95;;;14.60;;
43325;SDS011;28920;59.862;30.636;2024-02-26T04:12:46;44.80;;;14.93;;
43325;SDS011;28920;59.862;30.636;2024-02-26T04:15:13;32.20;;;12.93;;
43325;SDS011;28920;59.862;30.636;2024-02-26T04:17:41;33.78;;;14.32;;
43325;SDS011;28920;59.862;30.636;2024-02-26T04:20:12;35.50;;;14.05;;
43325;SDS011;28920;59.862;30.636;2024-02-26T04:22:41;43.75;;;15.35;;
43325;SDS011;28920;59.862;30.636;2024-02-26T04:25:08;33.03;;;13.62;;
43325;SDS011;28920;59.862;30.636;2024-02-26T04:27:36;35.85;;;13.15;;
43325;SDS011;28920;59.862;30.636;2024-02-26T04:30:03;28.62;;;12.73;;
43325;SDS011;28920;59.862;30.636;2024-02-26T04:32:31;38.63;;;13.90;;
43325;SDS011;28920;59.862;30.636;2024-02-26T04:34:58;31.08;;;13.20;;
43325;SDS011;28920;59.862;30.636;2024-02-26T04:37:26;35.33;;;12.48;;
43325;SDS011;28920;59.862;30.636;2024-02-26T04:39:58;22.15;;;10.65;;
43325;SDS011;28920;59.862;30.636;2024-02-26T04:42:26;29.05;;;12.77;;
43325;SDS011;28920;59.862;30.636;2024-02-26T04:44:54;29.87;;;11.77;;
43325;SDS011;28920;59.862;30.636;2024-02-26T04:47:21;28.08;;;12.88;;
43325;SDS011;28920;59.862;30.636;2024-02-26T04:49:49;24.73;;;10.45;;
43325;SDS011;28920;59.862;30.636;2024-02-26T04:52:16;35.78;;;13.00;;
43325;SDS011;28920;59.862;30.636;2024-02-26T04:54:43;35.17;;;13.32;;
43325;SDS011;28920;59.862;30.636;2024-02-26T04:57:12;40.90;;;14.90;;
43325;SDS011;28920;59.862;30.636;2024-02-26T04:59:39;32.30;;;13.43;;
43325;SDS011;28920;59.862;30.636;2024-02-26T05:02:07;30.50;;;11.82;;
43325;SDS011;28920;59.862;30.636;2024-02-26T05:04:34;28.30;;;11.12;;
43325;SDS011;28920;59.862;30.636;2024-02-26T05:07:01;29.92;;;11.70;;
43325;SDS011;28920;59.862;30.636;2024-02-26T05:09:28;32.08;;;13.32;;
43325;SDS011;28920;59.862;30.636;2024-02-26T05:11:56;32.30;;;12.80;;
43325;SDS011;28920;59.862;30.636;2024-02-26T05:14:24;42.60;;;14.57;;
43325;SDS011;28920;59.862;30.636;2024-02-26T05:16:51;33.55;;;14.43;;
43325;SDS011;28920;59.862;30.636;2024-02-26T05:19:18;40.22;;;15.18;;
43325;SDS011;28920;59.862;30.636;2024-02-26T05:21:45;35.65;;;14.48;;
43325;SDS011;28920;59.862;30.636;2024-02-26T05:24:15;47.10;;;15.30;;
43325;SDS011;28920;59.862;30.636;2024-02-26T05:26:43;35.92;;;14.02;;
43325;SDS011;28920;59.862;30.636;2024-02-26T05:29:11;34.53;;;15.63;;
43325;SDS011;28920;59.862;30.636;2024-02-26T05:31:39;44.95;;;15.75;;
43325;SDS011;28920;59.862;30.636;2024-02-26T05:34:09;41.30;;;16.45;;
43325;SDS011;28920;59.862;30.636;2024-02-26T05:36:36;46.63;;;16.52;;
43325;SDS011;28920;59.862;30.636;2024-02-26T05:39:03;38.47;;;15.52;;
43325;SDS011;28920;59.862;30.636;2024-02-26T05:41:30;46.45;;;19.02;;
43325;SDS011;28920;59.862;30.636;2024-02-26T05:43:58;50.22;;;19.05;;
43325;SDS011;28920;59.862;30.636;2024-02-26T05:46:25;49.92;;;19.90;;
43325;SDS011;28920;59.862;30.636;2024-02-26T05:48:54;41.40;;;16.52;;
43325;SDS011;28920;59.862;30.636;2024-02-26T05:51:21;41.78;;;15.75;;
43325;SDS011;28920;59.862;30.636;2024-02-26T05:53:48;54.88;;;19.00;;
43325;SDS011;28920;59.862;30.636;2024-02-26T05:56:20;46.22;;;17.48;;
43325;SDS011;28920;59.862;30.636;2024-02-26T05:58:48;28.12;;;11.77;;
43325;SDS011;28920;59.862;30.636;2024-02-26T06:01:15;49.47;;;16.67;;
43325;SDS011;28920;59.862;30.636;2024-02-26T06:03:43;41.00;;;16.83;;
43325;SDS011;28920;59.862;30.636;2024-02-26T06:06:11;47.33;;;19.15;;
43325;SDS011;28920;59.862;30.636;2024-02-26T06:08:39;59.25;;;19.83;;
43325;SDS011;28920;59.862;30.636;2024-02-26T06:11:06;43.13;;;18.75;;
43325;SDS011;28920;59.862;30.636;2024-02-26T06:13:33;45.40;;;18.23;;
43325;SDS011;28920;59.862;30.636;2024-02-26T06:16:01;51.42;;;19.30;;
43325;SDS011;28920;59.862;30.636;2024-02-26T06:18:28;35.20;;;14.73;;
43325;SDS011;28920;59.862;30.636;2024-02-26T06:20:55;48.17;;;18.67;;
43325;SDS011;28920;59.862;30.636;2024-02-26T06:23:23;37.95;;;16.65;;
43325;SDS011;28920;59.862;30.636;2024-02-26T06:25:51;36.45;;;15.40;;
43325;SDS011;28920;59.862;30.636;2024-02-26T06:28:18;34.25;;;15.88;;
43325;SDS011;28920;59.862;30.636;2024-02-26T06:30:45;42.22;;;17.05;;
43325;SDS011;28920;59.862;30.636;2024-02-26T06:33:13;42.08;;;16.98;;
43325;SDS011;28920;59.862;30.636;2024-02-26T06:35:40;48.70;;;18.90;;
43325;SDS011;28920;59.862;30.636;2024-02-26T06:38:07;41.20;;;17.77;;
43325;SDS011;28920;59.862;30.636;2024-02-26T06:40:36;44.08;;;17.92;;
43325;SDS011;28920;59.862;30.636;2024-02-26T06:43:03;44.90;;;17.52;;
43325;SDS011;28920;59.862;30.636;2024-02-26T06:45:30;32.30;;;16.70;;
43325;SDS011;28920;59.862;30.636;2024-02-26T06:47:59;44.20;;;19.92;;
43325;SDS011;28920;59.862;30.636;2024-02-26T06:50:26;40.97;;;20.20;;
43325;SDS011;28920;59.862;30.636;2024-02-26T06:52:53;36.72;;;14.77;;
43325;SDS011;28920;59.862;30.636;2024-02-26T06:55:20;39.22;;;19.37;;
43325;SDS011;28920;59.862;30.636;2024-02-26T06:57:48;40.47;;;18.27;;
43325;SDS011;28920;59.862;30.636;2024-02-26T07:00:16;38.00;;;18.48;;
43325;SDS011;28920;59.862;30.636;2024-02-26T07:02:43;40.90;;;18.00;;
43325;SDS011;28920;59.862;30.636;2024-02-26T07:05:11;38.13;;;17.73;;
43325;SDS011;28920;59.862;30.636;2024-02-26T07:07:38;39.22;;;18.15;;
43325;SDS011;28920;59.862;30.636;2024-02-26T07:10:06;33.58;;;16.80;;
43325;SDS011;28920;59.862;30.636;2024-02-26T07:12:34;31.10;;;15.95;;
43325;SDS011;28920;59.862;30.636;2024-02-26T07:15:02;36.10;;;18.58;;
43325;SDS011;28920;59.862;30.636;2024-02-26T07:17:30;31.25;;;16.90;;
43325;SDS011;28920;59.862;30.636;2024-02-26T07:20:00;38.72;;;18.05;;
43325;SDS011;28920;59.862;30.636;2024-02-26T07:22:27;30.30;;;16.90;;
43325;SDS011;28920;59.862;30.636;2024-02-26T07:24:54;25.08;;;12.05;;
43325;SDS011;28920;59.862;30.636;2024-02-26T07:27:21;27.30;;;15.77;;
43325;SDS011;28920;59.862;30.636;2024-02-26T07:29:48;32.17;;;16.60;;
43325;SDS011;28920;59.862;30.636;2024-02-26T07:32:17;28.67;;;14.87;;
43325;SDS011;28920;59.862;30.636;2024-02-26T07:34:44;34.20;;;17.52;;
43325;SDS011;28920;59.862;30.636;2024-02-26T07:37:11;32.13;;;16.50;;
43325;SDS011;28920;59.862;30.636;2024-02-26T07:39:38;26.42;;;15.50;;
43325;SDS011;28920;59.862;30.636;2024-02-26T07:42:06;24.52;;;14.05;;
43325;SDS011;28920;59.862;30.636;2024-02-26T07:44:33;25.88;;;14.77;;
43325;SDS011;28920;59.862;30.636;2024-02-26T07:47:00;20.27;;;11.45;;
43325;SDS011;28920;59.862;30.636;2024-02-26T07:49:29;27.17;;;12.13;;
43325;SDS011;28920;59.862;30.636;2024-02-26T07:51:56;20.37;;;12.70;;
43325;SDS011;28920;59.862;30.636;2024-02-26T07:54:24;20.12;;;11.95;;
43325;SDS011;28920;59.862;30.636;2024-02-26T07:56:51;19.35;;;11.20;;
43325;SDS011;28920;59.862;30.636;2024-02-26T07:59:19;14.25;;;9.82;;
43325;SDS011;28920;59.862;30.636;2024-02-26T08:01:49;18.58;;;10.82;;
43325;SDS011;28920;59.862;30.636;2024-02-26T08:04:17;16.43;;;9.10;;
43325;SDS011;28920;59.862;30.636;2024-02-26T08:06:44;13.38;;;8.23;;
43325;SDS011;28920;59.862;30.636;2024-02-26T08:09:12;17.55;;;9.80;;
43325;SDS011;28920;59.862;30.636;2024-02-26T08:11:39;13.57;;;7.12;;
43325;SDS011;28920;59.862;30.636;2024-02-26T08:14:06;11.93;;;7.53;;
43325;SDS011;28920;59.862;30.636;2024-02-26T08:16:33;13.40;;;8.10;;
43325;SDS011;28920;59.862;30.636;2024-02-26T08:19:01;13.50;;;7.75;;
43325;SDS011;28920;59.862;30.636;2024-02-26T08:21:28;11.30;;;6.80;;
43325;SDS011;28920;59.862;30.636;2024-02-26T08:23:55;13.20;;;7.03;;
43325;SDS011;28920;59.862;30.636;2024-02-26T08:26:23;11.18;;;6.65;;
43325;SDS011;28920;59.862;30.636;2024-02-26T08:28:50;12.02;;;7.10;;
43325;SDS011;28920;59.862;30.636;2024-02-26T08:31:17;11.60;;;7.53;;
43325;SDS011;28920;59.862;30.636;2024-02-26T08:33:45;9.25;;;5.75;;
43325;SDS011;28920;59.862;30.636;2024-02-26T08:36:12;13.60;;;6.53;;
43325;SDS011;28920;59.862;30.636;2024-02-26T08:38:39;10.35;;;5.45;;
43325;SDS011;28920;59.862;30.636;2024-02-26T08:41:07;9.30;;;6.53;;
43325;SDS011;28920;59.862;30.636;2024-02-26T08:43:34;8.85;;;6.32;;
43325;SDS011;28920;59.862;30.636;2024-02-26T08:46:01;11.43;;;6.95;;
43325;SDS011;28920;59.862;30.636;2024-02-26T08:48:29;9.10;;;6.05;;
43325;SDS011;28920;59.862;30.636;2024-02-26T08:50:56;9.70;;;5.65;;
43325;SDS011;28920;59.862;30.636;2024-02-26T08:53:23;8.30;;;5.53;;
43325;SDS011;28920;59.862;30.636;2024-02-26T08:55:53;8.40;;;6.03;;
43325;SDS011;28920;59.862;30.636;2024-02-26T08:58:21;7.60;;;5.37;;
43325;SDS011;28920;59.862;30.636;2024-02-26T09:00:48;7.37;;;5.28;;
43325;SDS011;28920;59.862;30.636;2024-02-26T09:03:15;9.48;;;5.45;;
43325;SDS011;28920;59.862;30.636;2024-02-26T09:05:42;6.65;;;4.62;;
43325;SDS011;28920;59.862;30.636;2024-02-26T09:08:10;9.00;;;5.65;;
43325;SDS011;28920;59.862;30.636;2024-02-26T09:10:37;8.52;;;4.72;;
43325;SDS011;28920;59.862;30.636;2024-02-26T09:13:04;7.45;;;5.28;;
43325;SDS011;28920;59.862;30.636;2024-02-26T09:15:32;7.25;;;4.60;;
43325;SDS011;28920;59.862;30.636;2024-02-26T09:18:00;10.82;;;5.93;;
43325;SDS011;28920;59.862;30.636;2024-02-26T09:20:27;6.40;;;4.35;;
43325;SDS011;28920;59.862;30.636;2024-02-26T09:22:54;8.75;;;5.03;;
43325;SDS011;28920;59.862;30.636;2024-02-26T09:25:22;10.25;;;5.50;;
43325;SDS011;28920;59.862;30.636;2024-02-26T09:27:49;7.10;;;5.03;;
43325;SDS011;28920;59.862;30.636;2024-02-26T09:30:16;8.00;;;5.68;;
43325;SDS011;28920;59.862;30.636;2024-02-26T09:32:46;8.50;;;6.12;;
43325;SDS011;28920;59.862;30.636;2024-02-26T09:35:14;8.45;;;5.57;;
43325;SDS011;28920;59.862;30.636;2024-02-26T09:37:41;7.12;;;5.00;;
43325;SDS011;28920;59.862;30.636;2024-02-26T09:40:11;5.95;;;4.07;;
43325;SDS011;28920;59.862;30.636;2024-02-26T09:42:39;8.35;;;5.57;;
43325;SDS011;28920;59.862;30.636;2024-02-26T09:45:09;8.35;;;5.32;;
43325;SDS011;28920;59.862;30.636;2024-02-26T09:47:39;9.07;;;5.62;;
43325;SDS011;28920;59.862;30.636;2024-02-26T09:50:07;7.70;;;5.85;;
43325;SDS011;28920;59.862;30.636;2024-02-26T09:52:38;7.70;;;5.80;;
43325;SDS011;28920;59.862;30.636;2024-02-26T09:55:07;9.70;;;6.40;;
43325;SDS011;28920;59.862;30.636;2024-02-26T09:57:36;8.55;;;5.97;;
43325;SDS011;28920;59.862;30.636;2024-02-26T10:00:04;7.18;;;5.70;;
43325;SDS011;28920;59.862;30.636;2024-02-26T10:02:37;9.43;;;6.28;;
43325;SDS011;28920;59.862;30.636;2024-02-26T10:05:05;8.80;;;6.62;;
43325;SDS011;28920;59.862;30.636;2024-02-26T10:10:04;10.18;;;6.68;;
43325;SDS011;28920;59.862;30.636;2024-02-26T10:12:31;5.72;;;3.28;;
43325;SDS011;28920;59.862;30.636;2024-02-26T10:14:59;9.05;;;6.65;;
43325;SDS011;28920;59.862;30.636;2024-02-26T10:17:27;10.02;;;7.07;;
43325;SDS011;28920;59.862;30.636;2024-02-26T10:19:54;10.30;;;6.87;;
43325;SDS011;28920;59.862;30.636;2024-02-26T10:22:37;9.40;;;6.85;;
43325;SDS011;28920;59.862;30.636;2024-02-26T10:25:05;8.15;;;5.97;;
43325;SDS011;28920;59.862;30.636;2024-02-26T10:27:32;6.62;;;5.62;;
43325;SDS011;28920;59.862;30.636;2024-02-26T10:30:02;7.50;;;6.00;;
43325;SDS011;28920;59.862;30.636;2024-02-26T10:32:31;6.43;;;4.45;;
43325;SDS011;28920;59.862;30.636;2024-02-26T10:34:59;8.25;;;6.20;;
43325;SDS011;28920;59.862;30.636;2024-02-26T10:37:26;8.77;;;6.40;;
43325;SDS011;28920;59.862;30.636;2024-02-26T10:39:54;10.02;;;7.03;;
43325;SDS011;28920;59.862;30.636;2024-02-26T10:42:21;9.85;;;6.65;;
43325;SDS011;28920;59.862;30.636;2024-02-26T10:44:48;8.77;;;6.57;;
43325;SDS011;28920;59.862;30.636;2024-02-26T10:47:15;9.45;;;6.05;;
43325;SDS011;28920;59.862;30.636;2024-02-26T10:49:46;8.43;;;6.30;;
43325;SDS011;28920;59.862;30.636;2024-02-26T10:52:14;8.90;;;6.10;;
43325;SDS011;28920;59.862;30.636;2024-02-26T10:54:46;9.13;;;5.72;;
43325;SDS011;28920;59.862;30.636;2024-02-26T10:57:15;7.30;;;5.30;;
43325;SDS011;28920;59.862;30.636;2024-02-26T10:59:45;8.48;;;5.87;;
43325;SDS011;28920;59.862;30.636;2024-02-26T11:02:12;8.00;;;5.57;;
43325;SDS011;28920;59.862;30.636;2024-02-26T11:04:40;7.20;;;4.97;;
43325;SDS011;28920;59.862;30.636;2024-02-26T11:07:08;8.15;;;6.00;;
43325;SDS011;28920;59.862;30.636;2024-02-26T11:09:36;8.77;;;5.80;;
43325;SDS011;28920;59.862;30.636;2024-02-26T11:12:10;8.00;;;5.68;;
43325;SDS011;28920;59.862;30.636;2024-02-26T11:14:40;8.18;;;6.07;;
43325;SDS011;28920;59.862;30.636;2024-02-26T11:17:09;10.10;;;6.97;;
43325;SDS011;28920;59.862;30.636;2024-02-26T11:19:39;9.05;;;6.43;;
43325;SDS011;28920;59.862;30.636;2024-02-26T11:22:09;11.20;;;6.78;;
43325;SDS011;28920;59.862;30.636;2024-02-26T11:24:37;10.02;;;7.57;;
43325;SDS011;28920;59.862;30.636;2024-02-26T11:27:07;8.55;;;5.80;;
43325;SDS011;28920;59.862;30.636;2024-02-26T11:29:38;9.15;;;6.30;;
43325;SDS011;28920;59.862;30.636;2024-02-26T11:32:10;8.43;;;5.43;;
43325;SDS011;28920;59.862;30.636;2024-02-26T11:34:37;9.25;;;6.22;;
43325;SDS011;28920;59.862;30.636;2024-02-26T11:37:09;13.57;;;7.65;;
43325;SDS011;28920;59.862;30.636;2024-02-26T11:39:37;7.62;;;5.97;;
43325;SDS011;28920;59.862;30.636;2024-02-26T11:42:06;8.30;;;5.37;;
43325;SDS011;28920;59.862;30.636;2024-02-26T11:44:34;7.45;;;5.47;;
43325;SDS011;28920;59.862;30.636;2024-02-26T11:47:12;7.25;;;4.93;;
43325;SDS011;28920;59.862;30.636;2024-02-26T11:49:40;7.47;;;5.05;;
43325;SDS011;28920;59.862;30.636;2024-02-26T11:52:08;6.37;;;4.35;;
43325;SDS011;28920;59.862;30.636;2024-02-26T11:54:39;6.90;;;4.70;;
43325;SDS011;28920;59.862;30.636;2024-02-26T11:57:23;6.28;;;4.47;;
43325;SDS011;28920;59.862;30.636;2024-02-26T11:59:51;7.32;;;4.40;;
43325;SDS011;28920;59.862;30.636;2024-02-26T12:02:38;7.43;;;4.90;;
43325;SDS011;28920;59.862;30.636;2024-02-26T12:05:09;7.28;;;4.97;;
43325;SDS011;28920;59.862;30.636;2024-02-26T12:07:39;5.70;;;4.20;;
43325;SDS011;28920;59.862;30.636;2024-02-26T12:10:21;5.85;;;3.78;;
43325;SDS011;28920;59.862;30.636;2024-02-26T12:12:54;6.47;;;4.30;;
43325;SDS011;28920;59.862;30.636;2024-02-26T12:15:30;6.65;;;4.85;;
43325;SDS011;28920;59.862;30.636;2024-02-26T12:18:00;7.03;;;4.78;;
43325;SDS011;28920;59.862;30.636;2024-02-26T12:20:29;6.37;;;4.47;;
43325;SDS011;28920;59.862;30.636;2024-02-26T12:22:56;6.25;;;4.15;;
43325;SDS011;28920;59.862;30.636;2024-02-26T12:25:24;5.15;;;3.90;;
43325;SDS011;28920;59.862;30.636;2024-02-26T12:27:52;7.62;;;3.83;;
43325;SDS011;28920;59.862;30.636;2024-02-26T12:30:19;5.50;;;3.55;;
43325;SDS011;28920;59.862;30.636;2024-02-26T12:32:47;4.93;;;3.05;;
43325;SDS011;28920;59.862;30.636;2024-02-26T12:35:16;4.82;;;3.08;;
43325;SDS011;28920;59.862;30.636;2024-02-26T12:37:43;3.83;;;2.92;;
43325;SDS011;28920;59.862;30.636;2024-02-26T12:40:11;2.75;;;2.08;;
43325;SDS011;28920;59.862;30.636;2024-02-26T12:42:39;2.95;;;1.75;;
43325;SDS011;28920;59.862;30.636;2024-02-26T12:45:06;3.95;;;2.78;;
43325;SDS011;28920;59.862;30.636;2024-02-26T12:47:36;4.22;;;2.87;;
43325;SDS011;28920;59.862;30.636;2024-02-26T12:50:05;4.15;;;3.17;;
43325;SDS011;28920;59.862;30.636;2024-02-26T12:52:34;3.65;;;2.72;;
43325;SDS011;28920;59.862;30.636;2024-02-26T12:55:02;4.18;;;2.87;;
43325;SDS011;28920;59.862;30.636;2024-02-26T12:57:31;5.57;;;3.22;;
43325;SDS011;28920;59.862;30.636;2024-02-26T12:59:59;4.45;;;3.00;;
43325;SDS011;28920;59.862;30.636;2024-02-26T13:02:28;3.67;;;2.53;;
43325;SDS011;28920;59.862;30.636;2024-02-26T13:04:57;3.72;;;2.67;;
43325;SDS011;28920;59.862;30.636;2024-02-26T13:07:27;3.37;;;2.65;;
43325;SDS011;28920;59.862;30.636;2024-02-26T13:09:55;4.72;;;3.08;;
43325;SDS011;28920;59.862;30.636;2024-02-26T13:12:22;4.28;;;3.08;;
43325;SDS011;28920;59.862;30.636;2024-02-26T13:14:58;4.43;;;3.00;;
43325;SDS011;28920;59.862;30.636;2024-02-26T13:17:26;4.37;;;3.12;;
43325;SDS011;28920;59.862;30.636;2024-02-26T13:19:54;4.65;;;3.40;;
43325;SDS011;28920;59.862;30.636;2024-02-26T13:22:21;2.85;;;2.08;;
43325;SDS011;28920;59.862;30.636;2024-02-26T13:24:56;2.97;;;2.60;;
43325;SDS011;28920;59.862;30.636;2024-02-26T13:27:24;3.03;;;2.22;;
43325;SDS011;28920;59.862;30.636;2024-02-26T13:30:01;3.92;;;2.15;;
43325;SDS011;28920;59.862;30.636;2024-02-26T13:32:35;2.40;;;2.20;;
43325;SDS011;28920;59.862;30.636;2024-02-26T13:35:04;2.37;;;1.92;;
43325;SDS011;28920;59.862;30.636;2024-02-26T13:37:33;2.60;;;1.90;;
43325;SDS011;28920;59.862;30.636;2024-02-26T13:40:00;3.03;;;2.12;;
43325;SDS011;28920;59.862;30.636;2024-02-26T13:42:31;3.37;;;2.87;;
43325;SDS011;28920;59.862;30.636;2024-02-26T13:44:59;2.42;;;1.73;;
43325;SDS011;28920;59.862;30.636;2024-02-26T13:47:26;2.00;;;1.67;;
43325;SDS011;28920;59.862;30.636;2024-02-26T13:49:53;2.33;;;2.00;;
43325;SDS011;28920;59.862;30.636;2024-02-26T13:52:21;2.80;;;2.03;;
43325;SDS011;28920;59.862;30.636;2024-02-26T13:54:49;2.17;;;1.98;;
43325;SDS011;28920;59.862;30.636;2024-02-26T13:57:17;4.12;;;2.95;;
43325;SDS011;28920;59.862;30.636;2024-02-26T13:59:45;3.90;;;3.15;;
43325;SDS011;28920;59.862;30.636;2024-02-26T14:02:13;7.10;;;5.35;;
43325;SDS011;28920;59.862;30.636;2024-02-26T14:04:41;6.05;;;4.72;;
43325;SDS011;28920;59.862;30.636;2024-02-26T14:07:08;10.85;;;7.10;;
43325;SDS011;28920;59.862;30.636;2024-02-26T14:09:37;6.62;;;5.32;;
43325;SDS011;28920;59.862;30.636;2024-02-26T14:12:04;5.22;;;4.30;;
43325;SDS011;28920;59.862;30.636;2024-02-26T14:14:32;3.97;;;2.65;;
43325;SDS011;28920;59.862;30.636;2024-02-26T14:17:02;3.37;;;2.65;;
43325;SDS011;28920;59.862;30.636;2024-02-26T14:19:30;38.72;;;20.48;;
43325;SDS011;28920;59.862;30.636;2024-02-26T14:21:57;12.70;;;8.30;;
43325;SDS011;28920;59.862;30.636;2024-02-26T14:24:24;43.83;;;27.95;;
43325;SDS011;28920;59.862;30.636;2024-02-26T14:26:52;18.00;;;12.43;;
43325;SDS011;28920;59.862;30.636;2024-02-26T14:29:19;21.20;;;17.35;;